createdAt,value
2022-08-09T00:00:29.162Z,3.25
2022-08-09T00:02:57.002Z,2.92
2022-08-09T00:06:16.125Z,3.10
2022-08-09T00:08:31.396Z,3.58
2022-08-09T00:10:59.678Z,3.72
2022-08-09T00:13:28.231Z,3.13
2022-08-09T00:16:02.754Z,2.20
2022-08-09T00:18:34.754Z,4.25
2022-08-09T00:21:04.357Z,3.88
2022-08-09T00:23:54.747Z,3.47
2022-08-09T00:26:18.099Z,3.80
2022-08-09T00:28:52.777Z,3.55
2022-08-09T00:31:56.914Z,3.75
2022-08-09T00:34:11.433Z,4.88
2022-08-09T00:36:38.340Z,5.07
2022-08-09T00:39:10.944Z,3.30
2022-08-09T00:44:16.717Z,3.55
2022-08-09T00:44:43.887Z,3.35
2022-08-09T00:47:15.614Z,2.67
2022-08-09T00:49:43.854Z,3.38
2022-08-09T00:52:22.899Z,5.10
2022-08-09T00:55:02.259Z,3.30
2022-08-09T00:57:34.991Z,3.47
2022-08-09T01:00:20.707Z,5.18
2022-08-09T01:03:28.364Z,2.63
2022-08-09T01:06:18.094Z,4.00
2022-08-09T01:09:47.576Z,4.65
2022-08-09T01:12:39.452Z,4.20
2022-08-09T01:15:21.936Z,3.35
2022-08-09T01:18:10.192Z,5.30
2022-08-09T01:21:25.138Z,3.72
2022-08-09T01:24:50.460Z,5.93
2022-08-09T01:27:23.944Z,4.30
2022-08-09T01:30:03.740Z,2.97
2022-08-09T01:32:45.260Z,5.60
2022-08-09T01:35:38.981Z,3.47
2022-08-09T01:38:18.125Z,4.72
2022-08-09T01:41:03.021Z,4.43
2022-08-09T01:43:42.122Z,3.42
2022-08-09T01:46:27.360Z,4.90
2022-08-09T01:49:10.410Z,5.60
2022-08-09T01:51:53.890Z,4.20
2022-08-09T01:54:32.753Z,6.03
2022-08-09T01:57:08.208Z,3.70
2022-08-09T01:59:51.964Z,4.65
2022-08-09T02:02:31.272Z,6.28
2022-08-09T02:05:15.363Z,3.50
2022-08-09T02:08:40.764Z,4.10
2022-08-09T02:10:51.843Z,3.58
2022-08-09T02:13:26.081Z,5.47
2022-08-09T02:16:07.346Z,5.75
2022-08-09T02:18:38.247Z,5.25
2022-08-09T02:21:22.290Z,4.22
2022-08-09T02:24:00.014Z,5.05
2022-08-09T02:26:34.672Z,5.00
2022-08-09T02:29:18.420Z,5.10
2022-08-09T02:31:47.588Z,5.63
2022-08-09T02:34:40.993Z,5.82
2022-08-09T02:37:16.117Z,4.95
2022-08-09T02:40:03.870Z,4.93
2022-08-09T02:42:43.009Z,5.60
2022-08-09T02:45:26.586Z,7.30
2022-08-09T02:48:03.519Z,5.15
2022-08-09T02:50:39.424Z,6.30
2022-08-09T02:53:26.287Z,6.47
2022-08-09T02:55:59.021Z,4.63
2022-08-09T02:58:35.680Z,5.10
2022-08-09T03:01:08.026Z,8.02
2022-08-09T03:04:18.467Z,9.48
2022-08-09T03:06:27.784Z,6.50
2022-08-09T03:08:57.143Z,6.10
2022-08-09T03:12:06.287Z,7.38
2022-08-09T03:14:13.991Z,5.63
2022-08-09T03:16:45.079Z,9.63
2022-08-09T03:19:52.581Z,9.20
2022-08-09T03:22:12.151Z,6.60
2022-08-09T03:25:21.484Z,6.47
2022-08-09T03:27:45.186Z,5.43
2022-08-09T03:30:29.759Z,6.78
2022-08-09T03:33:17.992Z,7.55
2022-08-09T03:36:13.484Z,7.00
2022-08-09T03:38:43.052Z,6.63
2022-08-09T03:41:16.653Z,7.40
2022-08-09T03:44:03.402Z,7.07
2022-08-09T03:46:34.960Z,6.80
2022-08-09T03:49:08.144Z,8.27
2022-08-09T03:51:43.664Z,7.60
2022-08-09T03:54:29.590Z,8.27
2022-08-09T03:57:04.462Z,7.07
2022-08-09T03:59:54.448Z,6.40
2022-08-09T04:02:29.158Z,8.85
2022-08-09T04:05:06.598Z,9.43
2022-08-09T04:07:52.640Z,7.43
2022-08-09T04:10:29.680Z,7.47
2022-08-09T04:13:00.627Z,7.00
2022-08-09T04:15:51.886Z,8.15
2022-08-09T04:18:17.874Z,8.80
2022-08-09T04:20:49.932Z,8.80
2022-08-09T04:23:24.457Z,8.60
2022-08-09T04:25:53.260Z,6.50
2022-08-09T04:28:33.570Z,6.88
2022-08-09T04:31:07.864Z,8.75
2022-08-09T04:33:47.290Z,9.40
2022-08-09T04:36:26.513Z,10.50
2022-08-09T04:38:55.543Z,5.95
2022-08-09T04:41:24.423Z,6.75
2022-08-09T04:44:06.557Z,9.50
2022-08-09T04:46:57.317Z,9.35
2022-08-09T04:49:40.070Z,8.63
2022-08-09T04:52:11.925Z,7.68
2022-08-09T04:54:46.959Z,9.55
2022-08-09T04:57:13.924Z,6.85
2022-08-09T04:59:41.766Z,9.98
2022-08-09T05:02:08.551Z,7.38
2022-08-09T05:04:36.892Z,9.80
2022-08-09T05:07:05.088Z,7.95
2022-08-09T05:09:32.604Z,8.88
2022-08-09T05:12:12.594Z,11.48
2022-08-09T05:14:41.185Z,10.40
2022-08-09T05:17:15.263Z,8.27
2022-08-09T05:19:56.940Z,8.40
2022-08-09T05:22:33.555Z,9.93
2022-08-09T05:25:11.620Z,8.82
2022-08-09T05:27:39.020Z,9.93
2022-08-09T05:30:17.772Z,12.57
2022-08-09T05:32:50.914Z,9.65
2022-08-09T05:35:18.317Z,10.93
2022-08-09T05:37:50.936Z,9.70
2022-08-09T05:40:18.778Z,10.00
2022-08-09T05:42:46.655Z,11.55
2022-08-09T05:45:14.688Z,10.73
2022-08-09T05:47:51.704Z,12.65
2022-08-09T05:50:36.151Z,11.48
2022-08-09T05:53:30.890Z,11.27
2022-08-09T05:55:59.494Z,10.25
2022-08-09T05:58:28.405Z,10.93
2022-08-09T06:00:55.187Z,9.43
2022-08-09T06:03:21.980Z,9.82
2022-08-09T06:05:57.868Z,8.65
2022-08-09T06:08:33.077Z,13.77
2022-08-09T06:11:00.754Z,9.05
2022-08-09T06:13:28.532Z,7.68
2022-08-09T06:16:05.047Z,11.13
2022-08-09T06:18:33.076Z,7.82
2022-08-09T06:21:01.803Z,8.32
2022-08-09T06:23:55.355Z,8.32
2022-08-09T06:26:22.428Z,6.85
2022-08-09T06:29:00.163Z,7.65
2022-08-09T06:31:31.373Z,7.30
2022-08-09T06:34:07.341Z,8.63
2022-08-09T06:36:34.403Z,7.32
2022-08-09T06:39:02.451Z,5.97
2022-08-09T06:42:09.434Z,6.18
2022-08-09T06:44:24.722Z,6.75
2022-08-09T06:46:55.282Z,6.55
2022-08-09T06:49:44.624Z,5.40
2022-08-09T06:52:12.264Z,7.38
2022-08-09T06:54:43.711Z,7.93
2022-08-09T06:57:11.919Z,8.32
2022-08-09T07:00:49.822Z,5.45
2022-08-09T07:02:30.803Z,4.95
2022-08-09T07:05:00.053Z,6.45
2022-08-09T07:07:58.853Z,7.93
2022-08-09T07:10:29.667Z,6.47
2022-08-09T07:12:59.619Z,7.80
2022-08-09T07:16:36.113Z,4.22
2022-08-09T07:18:15.438Z,8.30
2022-08-09T07:20:43.575Z,6.45
2022-08-09T07:23:18.252Z,6.38
2022-08-09T07:25:52.053Z,5.30
2022-08-09T07:28:26.190Z,5.18
2022-08-09T07:30:55.597Z,5.20
2022-08-09T07:33:23.159Z,7.22
2022-08-09T07:35:54.189Z,4.50
2022-08-09T07:38:23.451Z,6.50
2022-08-09T07:41:10.081Z,5.68
2022-08-09T07:43:41.180Z,3.95
2022-08-09T07:46:19.477Z,3.92
2022-08-09T07:48:59.067Z,4.30
2022-08-09T07:52:05.750Z,5.20
2022-08-09T07:54:14.443Z,6.00
2022-08-09T07:56:48.777Z,3.20
2022-08-09T07:59:34.030Z,2.80
2022-08-09T08:02:08.787Z,2.92
2022-08-09T08:04:36.524Z,2.75
2022-08-09T08:07:14.745Z,3.50
2022-08-09T08:10:05.829Z,6.20
2022-08-09T08:12:42.311Z,5.03
2022-08-09T08:15:16.473Z,1.98
2022-08-09T08:17:53.942Z,2.45
2022-08-09T08:20:29.505Z,2.70
2022-08-09T08:23:06.500Z,2.53
2022-08-09T08:25:46.597Z,2.42
2022-08-09T08:28:18.293Z,1.80
2022-08-09T08:30:53.116Z,1.95
2022-08-09T08:33:24.092Z,3.17
2022-08-09T08:35:59.104Z,1.92
2022-08-09T08:38:29.462Z,2.38
2022-08-09T08:40:58.005Z,2.60
2022-08-09T08:43:27.243Z,1.88
2022-08-09T08:46:04.054Z,2.13
2022-08-09T08:48:51.493Z,1.70
2022-08-09T08:51:19.376Z,2.00
2022-08-09T08:54:03.096Z,2.55
2022-08-09T08:56:33.747Z,1.65
2022-08-09T08:59:18.739Z,3.30
2022-08-09T09:01:52.994Z,2.42
2022-08-09T09:04:31.959Z,2.42
2022-08-09T09:07:11.081Z,2.35
2022-08-09T09:10:01.699Z,1.85
2022-08-09T09:12:32.048Z,2.17
2022-08-09T09:15:02.246Z,0.60
2022-08-09T09:17:48.275Z,1.10
2022-08-09T09:20:17.369Z,1.92
2022-08-09T09:23:01.801Z,2.70
2022-08-09T09:26:03.245Z,2.70
2022-08-09T09:29:01.763Z,4.40
2022-08-09T09:32:03.287Z,1.27
2022-08-09T09:34:18.339Z,2.10
2022-08-09T09:36:51.047Z,1.45
2022-08-09T09:39:22.977Z,0.95
2022-08-09T09:41:51.331Z,0.98
2022-08-09T09:44:31.471Z,0.90
2022-08-09T09:47:16.505Z,1.65
2022-08-09T09:50:14.172Z,1.00
2022-08-09T09:52:56.302Z,4.05
2022-08-09T09:55:31.938Z,0.75
2022-08-09T09:58:17.186Z,0.45
2022-08-09T10:00:58.898Z,1.02
2022-08-09T10:03:56.050Z,1.85
2022-08-09T10:06:25.008Z,0.98
2022-08-09T10:09:12.013Z,0.60
2022-08-09T10:12:12.583Z,0.75
2022-08-09T10:14:47.699Z,0.82
2022-08-09T10:17:40.362Z,1.05
2022-08-09T10:20:33.090Z,1.70
2022-08-09T10:23:20.407Z,1.02
2022-08-09T10:26:07.916Z,0.65
2022-08-09T10:28:40.542Z,0.90
2022-08-09T10:32:27.703Z,3.22
2022-08-09T10:34:10.594Z,2.15
2022-08-09T10:36:45.622Z,0.82
2022-08-09T10:39:16.188Z,1.33
2022-08-09T10:41:47.660Z,1.63
2022-08-09T10:44:23.007Z,1.23
2022-08-09T10:48:14.419Z,3.00
2022-08-09T10:51:00.953Z,1.95
2022-08-09T10:54:05.879Z,1.52
2022-08-09T10:56:40.393Z,1.63
2022-08-09T10:59:23.151Z,1.92
2022-08-09T11:03:15.243Z,2.33
2022-08-09T11:04:55.667Z,1.65
2022-08-09T11:07:57.934Z,2.35
2022-08-09T11:10:41.300Z,3.38
2022-08-09T11:13:49.145Z,2.10
2022-08-09T11:16:38.429Z,2.25
2022-08-09T11:19:10.601Z,0.70
2022-08-09T11:22:16.824Z,3.85
2022-08-09T11:25:05.451Z,1.23
2022-08-09T11:28:03.146Z,1.70
2022-08-09T11:30:37.607Z,2.08
2022-08-09T11:33:11.574Z,1.38
2022-08-09T11:35:55.477Z,2.10
2022-08-09T11:38:41.156Z,1.88
2022-08-09T11:41:14.124Z,2.85
2022-08-09T11:43:49.320Z,2.60
2022-08-09T11:46:33.422Z,1.13
2022-08-09T11:49:05.397Z,1.23
2022-08-09T11:53:00.478Z,0.88
2022-08-09T11:55:53.866Z,1.10
2022-08-09T11:58:32.493Z,2.17
2022-08-09T12:01:08.667Z,1.58
2022-08-09T12:03:55.405Z,1.08
2022-08-09T12:06:32.338Z,0.88
2022-08-09T12:09:17.537Z,1.05
2022-08-09T12:12:12.156Z,0.40
2022-08-09T12:14:59.133Z,0.73
2022-08-09T12:17:28.328Z,0.88
2022-08-09T12:20:21.974Z,1.17
2022-08-09T12:23:03.213Z,0.98
2022-08-09T12:25:37.262Z,0.70
2022-08-09T12:29:13.078Z,0.57
2022-08-09T12:31:31.176Z,2.38
2022-08-09T12:34:09.308Z,2.85
2022-08-09T12:36:51.328Z,1.48
2022-08-09T12:39:26.151Z,2.78
2022-08-09T12:41:54.792Z,1.40
2022-08-09T12:44:24.405Z,0.98
2022-08-09T12:46:51.810Z,0.82
2022-08-09T12:49:21.237Z,1.55
2022-08-09T12:52:02.552Z,2.25
2022-08-09T12:56:02.349Z,0.93
2022-08-09T12:57:46.922Z,0.73
2022-08-09T13:00:32.471Z,1.58
2022-08-09T13:03:06.295Z,1.05
2022-08-09T13:05:52.433Z,1.02
2022-08-09T13:08:40.522Z,1.88
2022-08-09T13:11:13.138Z,0.77
2022-08-09T13:14:43.664Z,2.05
2022-08-09T13:16:57.339Z,0.45
2022-08-09T13:20:06.831Z,0.95
2022-08-09T13:22:37.626Z,1.42
2022-08-09T13:25:14.308Z,1.08
2022-08-09T13:27:54.724Z,2.40
2022-08-09T13:30:50.763Z,0.68
2022-08-09T13:33:23.516Z,1.10
2022-08-09T13:36:39.758Z,2.03
2022-08-09T13:38:55.088Z,1.63
2022-08-09T13:41:59.046Z,3.38
2022-08-09T13:44:16.262Z,1.40
2022-08-09T13:47:29.826Z,1.23
2022-08-09T13:49:35.246Z,2.65
2022-08-09T13:52:10.603Z,1.85
2022-08-09T13:54:41.624Z,0.65
2022-08-09T13:57:14.465Z,2.38
2022-08-09T13:59:58.905Z,1.08
2022-08-09T14:02:26.227Z,1.75
2022-08-09T14:05:00.153Z,1.27
2022-08-09T14:07:30.358Z,1.88
2022-08-09T14:10:17.529Z,0.70
2022-08-09T14:12:59.926Z,2.00
2022-08-09T14:16:10.241Z,0.75
2022-08-09T14:18:29.934Z,1.60
2022-08-09T14:20:58.989Z,0.80
2022-08-09T14:23:40.034Z,0.70
2022-08-09T14:26:13.052Z,3.13
2022-08-09T14:28:40.967Z,1.20
2022-08-09T14:31:07.879Z,2.20
2022-08-09T14:33:38.053Z,2.45
2022-08-09T14:36:19.931Z,2.33
2022-08-09T14:38:52.744Z,1.23
2022-08-09T14:41:34.609Z,1.90
2022-08-09T14:44:07.456Z,3.40
2022-08-09T14:47:04.713Z,1.17
2022-08-09T14:49:28.955Z,1.33
2022-08-09T14:52:02.038Z,1.20
2022-08-09T14:54:29.563Z,1.30
2022-08-09T14:56:58.599Z,1.77
2022-08-09T14:59:28.490Z,3.97
2022-08-09T15:01:56.161Z,3.22
2022-08-09T15:04:23.958Z,1.42
2022-08-09T15:06:52.108Z,1.85
2022-08-09T15:10:03.641Z,1.95
2022-08-09T15:12:07.847Z,1.95
2022-08-09T15:14:38.596Z,1.10
2022-08-09T15:17:09.726Z,1.75
2022-08-09T15:19:37.099Z,1.73
2022-08-09T15:22:26.222Z,2.03
2022-08-09T15:24:54.339Z,1.38
2022-08-09T15:27:21.971Z,1.50
2022-08-09T15:30:58.730Z,1.80
2022-08-09T15:32:36.301Z,2.20
2022-08-09T15:35:40.068Z,2.30
2022-08-09T15:37:57.477Z,2.58
2022-08-09T15:40:38.339Z,4.13
2022-08-09T15:43:14.256Z,1.73
2022-08-09T15:46:07.510Z,2.13
2022-08-09T15:48:30.837Z,2.80
2022-08-09T15:51:01.239Z,1.75
2022-08-09T15:54:05.793Z,3.50
2022-08-09T15:56:29.082Z,2.45
2022-08-09T15:58:58.563Z,1.27
2022-08-09T16:01:25.967Z,1.58
2022-08-09T16:03:52.800Z,1.73
2022-08-09T16:06:32.355Z,3.50
2022-08-09T16:09:05.724Z,1.63
2022-08-09T16:11:33.812Z,2.03
2022-08-09T16:14:06.991Z,2.97
2022-08-09T16:16:41.976Z,1.98
2022-08-09T16:19:15.344Z,2.28
2022-08-09T16:21:48.508Z,1.73
2022-08-09T16:24:29.825Z,2.33
2022-08-09T16:27:01.349Z,1.85
2022-08-09T16:29:36.980Z,3.65
2022-08-09T16:32:20.132Z,2.38
2022-08-09T16:34:56.613Z,1.65
2022-08-09T16:37:53.783Z,1.77
2022-08-09T16:40:20.483Z,2.45
2022-08-09T16:42:58.013Z,1.35
2022-08-09T16:45:24.913Z,2.75
2022-08-09T16:48:40.827Z,2.65
2022-08-09T16:50:49.879Z,1.42
2022-08-09T16:53:33.897Z,1.50
2022-08-09T16:56:06.227Z,1.77
2022-08-09T16:58:39.673Z,4.97
2022-08-09T17:01:09.706Z,1.35
2022-08-09T17:03:37.636Z,3.40
2022-08-09T17:06:26.017Z,1.00
2022-08-09T17:09:00.136Z,2.33
2022-08-09T17:11:41.279Z,2.05
2022-08-09T17:14:25.802Z,1.17
2022-08-09T17:16:59.704Z,2.05
2022-08-09T17:19:47.129Z,1.38
2022-08-09T17:22:30.907Z,3.25
2022-08-09T17:25:03.636Z,2.05
2022-08-09T17:27:33.455Z,1.13
2022-08-09T17:30:04.774Z,2.50
2022-08-09T17:32:38.307Z,1.52
2022-08-09T17:35:11.492Z,0.80
2022-08-09T17:38:12.142Z,2.22
2022-08-09T17:40:30.178Z,1.38
2022-08-09T17:43:11.157Z,1.67
2022-08-09T17:46:05.706Z,0.88
2022-08-09T17:48:40.413Z,1.45
2022-08-09T17:51:18.500Z,2.47
2022-08-09T17:53:52.228Z,1.67
2022-08-09T17:56:35.372Z,2.05
2022-08-09T17:59:11.758Z,1.65
2022-08-09T18:02:07.645Z,0.90
2022-08-09T18:04:28.071Z,2.92
2022-08-09T18:06:55.768Z,0.60
2022-08-09T18:09:40.720Z,1.15
2022-08-09T18:12:17.324Z,1.80
2022-08-09T18:14:54.731Z,2.53
2022-08-09T18:18:01.959Z,0.90
2022-08-09T18:20:54.251Z,1.45
2022-08-09T18:23:05.053Z,1.30
2022-08-09T18:25:50.957Z,2.22
2022-08-09T18:30:40.621Z,1.20
2022-08-09T18:31:10.059Z,0.85
2022-08-09T18:33:40.195Z,3.15
2022-08-09T18:36:14.270Z,1.27
2022-08-09T18:38:57.362Z,2.25
2022-08-09T18:41:28.003Z,2.42
2022-08-09T18:43:55.273Z,1.75
2022-08-09T18:46:50.447Z,0.85
2022-08-09T18:49:08.985Z,1.30
2022-08-09T18:51:38.347Z,1.30
2022-08-09T18:54:29.515Z,1.85
2022-08-09T18:57:05.840Z,1.65
2022-08-09T18:59:48.898Z,0.90
2022-08-09T19:02:18.001Z,3.25
2022-08-09T19:04:47.405Z,1.48
2022-08-09T19:07:17.907Z,1.10
2022-08-09T19:10:13.926Z,1.13
2022-08-09T19:12:32.264Z,1.00
2022-08-09T19:15:07.020Z,2.63
2022-08-09T19:17:39.734Z,8.02
2022-08-09T19:20:24.785Z,1.23
2022-08-09T19:22:54.832Z,1.75
2022-08-09T19:25:41.775Z,2.25
2022-08-09T19:28:13.166Z,2.60
2022-08-09T19:30:44.309Z,2.38
2022-08-09T19:33:19.547Z,1.05
2022-08-09T19:35:57.954Z,0.52
2022-08-09T19:38:29.236Z,0.93
2022-08-09T19:41:00.523Z,1.67
2022-08-09T19:44:00.807Z,1.05
2022-08-09T19:46:35.347Z,1.10
2022-08-09T19:50:06.997Z,3.50
2022-08-09T19:51:59.951Z,1.83
2022-08-09T19:54:31.805Z,1.10
2022-08-09T19:57:01.293Z,1.10
2022-08-09T19:59:57.508Z,3.42
2022-08-09T20:04:08.157Z,1.90
2022-08-09T20:05:09.794Z,1.88
2022-08-09T20:07:58.915Z,2.15
2022-08-09T20:10:28.109Z,1.50
2022-08-09T20:13:07.827Z,1.10
2022-08-09T20:16:32.902Z,3.78
2022-08-09T20:18:28.452Z,1.23
2022-08-09T20:20:59.710Z,1.73
2022-08-09T20:23:39.395Z,2.50
2022-08-09T20:26:10.240Z,2.13
2022-08-09T20:28:48.404Z,1.48
2022-08-09T20:31:18.202Z,2.35
2022-08-09T20:33:45.813Z,1.27
2022-08-09T20:36:13.759Z,2.25
2022-08-09T20:39:28.753Z,2.97
2022-08-09T20:41:35.277Z,1.48
2022-08-09T20:44:10.606Z,1.00
2022-08-09T20:46:44.071Z,1.45
2022-08-09T20:49:13.046Z,1.13
2022-08-09T20:51:42.108Z,2.80
2022-08-09T20:54:16.674Z,1.15
2022-08-09T20:56:46.927Z,1.00
2022-08-09T20:59:17.309Z,1.00
2022-08-09T21:01:50.234Z,1.45
2022-08-09T21:05:54.870Z,1.05
2022-08-09T21:07:11.618Z,1.05
2022-08-09T21:09:56.670Z,0.70
2022-08-09T21:15:16.036Z,1.85
2022-08-09T21:18:23.068Z,1.65
2022-08-09T21:20:32.750Z,1.95
2022-08-09T21:23:02.899Z,1.20
2022-08-09T21:25:53.867Z,0.65
2022-08-09T21:28:35.254Z,1.48
2022-08-09T21:31:16.994Z,1.52
2022-08-09T21:33:52.126Z,1.50
2022-08-09T21:36:22.984Z,1.52
2022-08-09T21:38:57.182Z,3.67
2022-08-09T21:42:04.302Z,2.67
2022-08-09T21:44:32.816Z,1.60
2022-08-09T21:47:08.638Z,1.05
2022-08-09T21:49:43.110Z,2.65
2022-08-09T21:52:17.595Z,2.28
2022-08-09T21:54:59.327Z,7.43
2022-08-09T21:57:39.028Z,1.27
2022-08-09T22:00:32.361Z,2.85
2022-08-09T22:03:05.467Z,1.80
2022-08-09T22:05:37.238Z,1.92
2022-08-09T22:08:13.753Z,1.88
2022-08-09T22:11:00.621Z,1.75
2022-08-09T22:13:34.761Z,1.60
2022-08-09T22:16:08.320Z,1.30
2022-08-09T22:18:52.163Z,1.75
2022-08-09T22:21:49.574Z,1.52
2022-08-09T22:24:21.186Z,2.53
2022-08-09T22:26:52.368Z,1.58
2022-08-09T22:29:24.037Z,2.95
2022-08-09T22:31:56.508Z,4.90
2022-08-09T22:34:27.819Z,1.35
2022-08-09T22:36:58.012Z,3.13
2022-08-09T22:39:57.482Z,1.38
2022-08-09T22:42:20.638Z,1.00
2022-08-09T22:44:59.859Z,1.75
2022-08-09T22:48:18.731Z,0.90
2022-08-09T22:50:16.017Z,1.73
2022-08-09T22:52:43.271Z,1.55
2022-08-09T22:55:21.929Z,1.67
2022-08-09T22:57:59.729Z,2.88
2022-08-09T23:00:29.563Z,1.40
2022-08-09T23:02:56.722Z,1.48
2022-08-09T23:05:25.587Z,1.73
2022-08-09T23:08:21.820Z,1.33
2022-08-09T23:10:50.782Z,2.25
2022-08-09T23:13:17.587Z,2.58
2022-08-09T23:15:44.447Z,1.00
2022-08-09T23:18:31.074Z,2.15
2022-08-09T23:20:58.033Z,2.45
2022-08-09T23:23:24.816Z,3.80
2022-08-09T23:25:51.664Z,3.33
2022-08-09T23:28:18.424Z,1.35
2022-08-09T23:30:51.284Z,2.17
2022-08-09T23:33:23.011Z,1.58
2022-08-09T23:36:05.833Z,1.70
2022-08-09T23:38:35.924Z,1.33
2022-08-09T23:41:28.893Z,2.38
2022-08-09T23:44:01.137Z,1.23
2022-08-09T23:46:32.228Z,1.83
2022-08-09T23:49:00.444Z,1.17
2022-08-09T23:51:28.552Z,3.65
2022-08-09T23:54:02.963Z,3.75
2022-08-09T23:56:52.775Z,3.40
2022-08-09T23:59:20.591Z,1.65
